createdAt,value
2017-02-09T00:00:01.229Z,85.41
2017-02-09T00:01:14.338Z,85.85
2017-02-09T00:02:27.446Z,85.7
2017-02-09T00:03:40.757Z,85.31
2017-02-09T00:04:53.866Z,85.7
2017-02-09T00:06:06.976Z,85.7
2017-02-09T00:07:20.086Z,85.5
2017-02-09T00:10:00.327Z,85.22
2017-02-09T00:11:12.882Z,85.7
2017-02-09T00:12:25.991Z,85.41
2017-02-09T00:13:39.305Z,85.5
2017-02-09T00:14:52.420Z,85.41
2017-02-09T00:16:05.537Z,85.5
2017-02-09T00:17:32.658Z,85.7
2017-02-09T00:18:45.770Z,85.12
2017-02-09T00:19:58.877Z,85.02
2017-02-09T00:21:11.991Z,85.22
2017-02-09T00:22:25.103Z,85.12
2017-02-09T00:23:38.213Z,84.93
2017-02-09T00:24:51.523Z,85.12
2017-02-09T00:26:04.631Z,85.12
2017-02-09T00:27:17.181Z,84.93
2017-02-09T00:28:30.292Z,84.83
2017-02-09T00:29:43.043Z,84.93
2017-02-09T00:30:55.593Z,85.12
2017-02-09T00:32:08.706Z,84.93
2017-02-09T00:33:21.817Z,85.22
2017-02-09T00:34:34.927Z,84.35
2017-02-09T00:35:47.479Z,84.74
2017-02-09T00:38:41.163Z,84.83
2017-02-09T00:39:54.472Z,84.74
2017-02-09T00:41:07.588Z,84.83
2017-02-09T00:42:20.696Z,84.74
2017-02-09T00:43:33.810Z,84.54
2017-02-09T00:44:46.361Z,84.44
2017-02-09T00:45:59.770Z,84.35
2017-02-09T00:47:12.880Z,84.16
2017-02-09T00:48:40.005Z,84.54
2017-02-09T00:49:53.159Z,84.44
2017-02-09T00:51:06.142Z,85.02
2017-02-09T00:52:19.387Z,85.31
2017-02-09T00:53:32.636Z,85.12
2017-02-09T00:54:45.918Z,84.74
2017-02-09T00:55:59.370Z,84.93
2017-02-09T00:57:12.051Z,85.02
2017-02-09T00:58:25.299Z,85.02
2017-02-09T00:59:38.550Z,85.41
2017-02-09T01:00:51.798Z,85.12
2017-02-09T01:02:05.244Z,86.28
2017-02-09T01:03:17.928Z,86.38
2017-02-09T01:04:31.177Z,86.47
2017-02-09T01:05:44.458Z,85.99
2017-02-09T01:06:57.907Z,85.89
2017-02-09T01:08:10.588Z,86.38
2017-02-09T01:09:37.821Z,86.57
2017-02-09T01:10:51.070Z,86.18
2017-02-09T01:12:04.525Z,85.99
2017-02-09T01:13:17.210Z,86.28
2017-02-09T01:14:30.459Z,86.08
2017-02-09T01:15:43.712Z,86.38
2017-02-09T01:16:56.964Z,86.66
2017-02-09T01:18:10.417Z,86.38
2017-02-09T01:19:23.667Z,86.18
2017-02-09T01:20:50.902Z,86.76
2017-02-09T01:22:04.353Z,86.08
2017-02-09T01:23:17.601Z,86.86
2017-02-09T01:24:30.852Z,87.15
2017-02-09T01:25:44.115Z,86.86
2017-02-09T01:26:56.798Z,87.05
2017-02-09T01:28:24.032Z,86.76
2017-02-09T01:29:37.283Z,86.96
2017-02-09T01:30:50.561Z,86.86
2017-02-09T01:32:03.811Z,86.76
2017-02-09T01:33:16.497Z,86.86
2017-02-09T01:34:29.748Z,86.76
2017-02-09T01:35:42.450Z,87.05
2017-02-09T01:36:55.703Z,87.34
2017-02-09T01:38:09.167Z,87.82
2017-02-09T01:40:49.088Z,87.73
2017-02-09T01:42:02.363Z,88.59
2017-02-09T01:43:14.692Z,88.36
2017-02-09T01:44:27.949Z,88.17
2017-02-09T01:45:41.217Z,87.88
2017-02-09T01:46:54.554Z,87.88
2017-02-09T01:48:07.291Z,88.26
2017-02-09T01:49:20.335Z,87.4
2017-02-09T01:50:33.610Z,87.3
2017-02-09T01:51:46.856Z,87.68
2017-02-09T01:52:59.537Z,87.78
2017-02-09T01:54:12.785Z,87.68
2017-02-09T01:55:26.063Z,87.78
2017-02-09T01:56:53.293Z,87.53
2017-02-09T01:58:05.979Z,87.73
2017-02-09T01:59:19.429Z,87.63
2017-02-09T02:00:32.676Z,87.53
2017-02-09T02:01:45.362Z,87.44
2017-02-09T02:02:58.610Z,87.82
2017-02-09T02:04:11.862Z,87.34
2017-02-09T02:05:25.111Z,86.76
2017-02-09T02:06:38.359Z,86.76
2017-02-09T02:07:51.609Z,86.96
2017-02-09T02:09:04.863Z,86.86
2017-02-09T02:10:17.849Z,86.86
2017-02-09T02:11:31.097Z,87.15
2017-02-09T02:12:58.330Z,86.86
2017-02-09T02:14:11.578Z,86.76
2017-02-09T02:15:25.023Z,86.38
2017-02-09T02:16:38.272Z,86.38
2017-02-09T02:17:51.521Z,86.18
2017-02-09T02:19:04.770Z,86.18
2017-02-09T02:20:17.449Z,86.57
2017-02-09T02:21:30.429Z,86.38
2017-02-09T02:22:43.678Z,86.38
2017-02-09T02:23:56.929Z,86.66
2017-02-09T02:25:10.177Z,86.47
2017-02-09T02:26:23.623Z,86.47
2017-02-09T02:27:36.304Z,86.28
2017-02-09T02:28:49.549Z,86.66
2017-02-09T02:30:02.800Z,86.08
2017-02-09T02:31:16.049Z,86.38
2017-02-09T02:32:29.498Z,86.38
2017-02-09T02:33:42.757Z,85.99
2017-02-09T02:34:56.008Z,86.28
2017-02-09T02:36:09.264Z,86.47
2017-02-09T02:37:22.712Z,86.47
2017-02-09T02:38:49.942Z,86.76
2017-02-09T02:40:03.189Z,86.28
2017-02-09T02:41:15.891Z,86.47
2017-02-09T02:42:29.141Z,86.66
2017-02-09T02:45:23.602Z,87.34
2017-02-09T02:46:36.283Z,87.34
2017-02-09T02:47:49.738Z,87.78
2017-02-09T02:49:02.991Z,87.88
2017-02-09T02:50:16.240Z,87.59
2017-02-09T02:51:29.489Z,87.49
2017-02-09T02:52:42.197Z,87.3
2017-02-09T02:53:55.443Z,87.24
2017-02-09T02:55:08.692Z,87.01
2017-02-09T02:57:49.372Z,87.44
2017-02-09T02:59:02.619Z,86.82
2017-02-09T03:00:15.871Z,86.96
2017-02-09T03:01:29.121Z,86.91
2017-02-09T03:02:42.373Z,87.15
2017-02-09T03:03:55.622Z,86.86
2017-02-09T03:05:08.825Z,86.62
2017-02-09T03:06:21.935Z,86.62
2017-02-09T03:07:35.040Z,87.1
2017-02-09T03:08:48.349Z,86.82
2017-02-09T03:10:01.460Z,86.82
2017-02-09T03:11:14.580Z,86.04
2017-02-09T03:12:27.690Z,85.94
2017-02-09T03:13:54.809Z,85.56
2017-02-09T03:15:07.917Z,85.66
2017-02-09T03:16:20.468Z,84.89
2017-02-09T03:17:33.578Z,85.66
2017-02-09T03:18:46.691Z,85.27
2017-02-09T03:20:00.001Z,85.27
2017-02-09T03:21:12.555Z,85.37
2017-02-09T03:23:52.792Z,85.46
2017-02-09T03:25:05.901Z,85.66
2017-02-09T03:26:19.011Z,86.04
2017-02-09T03:27:32.124Z,86.04
2017-02-09T03:28:45.232Z,86.43
2017-02-09T03:29:58.540Z,86.43
2017-02-09T03:31:11.090Z,86.43
2017-02-09T03:32:24.200Z,86.14
2017-02-09T03:33:37.310Z,86.68
2017-02-09T03:34:49.859Z,86.77
2017-02-09T03:36:03.167Z,86.77
2017-02-09T03:37:15.716Z,86.62
2017-02-09T03:38:28.824Z,86.62
2017-02-09T03:39:41.931Z,86.82
2017-02-09T03:40:55.343Z,86.62
2017-02-09T03:42:08.449Z,86.33
2017-02-09T03:43:35.571Z,86.62
2017-02-09T03:46:15.795Z,86.82
2017-02-09T03:47:28.907Z,86.82
2017-02-09T03:48:42.019Z,86.62
2017-02-09T03:49:55.129Z,86.91
2017-02-09T03:51:08.260Z,86.52
2017-02-09T03:52:21.570Z,87.1
2017-02-09T03:53:34.678Z,86.91
2017-02-09T03:54:47.792Z,86.72
2017-02-09T03:55:59.781Z,86.91
2017-02-09T03:57:12.892Z,86.82
2017-02-09T03:58:26.004Z,85.94
2017-02-09T03:59:39.115Z,86.52
2017-02-09T04:00:52.228Z,86.52
2017-02-09T04:02:05.337Z,86.14
2017-02-09T04:03:18.646Z,86.33
2017-02-09T04:04:31.756Z,86.33
2017-02-09T04:05:44.864Z,85.85
2017-02-09T04:06:57.411Z,86.14
2017-02-09T04:08:10.160Z,86.14
2017-02-09T04:09:23.274Z,86.24
2017-02-09T04:10:36.385Z,86.24
2017-02-09T04:11:49.495Z,86.04
2017-02-09T04:13:02.610Z,86.48
2017-02-09T04:14:16.023Z,85.91
2017-02-09T04:15:29.133Z,86
2017-02-09T04:16:42.241Z,86.48
2017-02-09T04:17:55.353Z,86.48
2017-02-09T04:19:08.462Z,86
2017-02-09T04:20:21.574Z,85.91
2017-02-09T04:21:34.682Z,85.81
2017-02-09T04:22:47.795Z,85.91
2017-02-09T04:24:00.907Z,85.23
2017-02-09T04:25:14.219Z,85.03
2017-02-09T04:26:41.337Z,85.23
2017-02-09T04:27:53.887Z,85.61
2017-02-09T04:29:06.997Z,85.42
2017-02-09T04:30:20.105Z,85.61
2017-02-09T04:31:33.219Z,86.1
2017-02-09T04:32:46.334Z,85.91
2017-02-09T04:33:58.889Z,85.81
2017-02-09T04:35:12.311Z,86.1
2017-02-09T04:36:25.422Z,86.1
2017-02-09T04:37:38.533Z,86.29
2017-02-09T04:38:51.641Z,86.19
2017-02-09T04:40:04.753Z,86.29
2017-02-09T04:41:17.303Z,86.58
2017-02-09T04:42:30.409Z,86.58
2017-02-09T04:43:43.524Z,86
2017-02-09T04:44:56.633Z,86
2017-02-09T04:46:09.383Z,86.19
2017-02-09T04:47:22.494Z,86.29
2017-02-09T04:48:35.601Z,85.86
2017-02-09T04:49:48.710Z,86.39
2017-02-09T04:51:01.820Z,86.25
2017-02-09T04:52:14.669Z,86.29
2017-02-09T04:53:27.777Z,86.1
2017-02-09T04:54:40.886Z,86.54
2017-02-09T04:55:53.435Z,86.39
2017-02-09T04:57:06.842Z,86.05
2017-02-09T04:58:19.951Z,86.15
2017-02-09T04:59:33.065Z,86.54
2017-02-09T05:00:46.179Z,86.82
2017-02-09T05:01:59.289Z,86.29
2017-02-09T05:03:11.477Z,86.25
2017-02-09T05:04:24.591Z,86.48
2017-02-09T05:05:37.705Z,86.1
2017-02-09T05:06:50.813Z,86.39
2017-02-09T05:08:04.122Z,86.39
2017-02-09T05:09:16.679Z,86.39
2017-02-09T05:10:29.793Z,86.19
2017-02-09T05:11:42.908Z,86.48
2017-02-09T05:12:56.018Z,86.68
2017-02-09T05:14:09.325Z,86.1
2017-02-09T05:15:22.442Z,86.29
2017-02-09T05:16:35.551Z,86.39
2017-02-09T05:17:48.659Z,86.48
2017-02-09T05:19:02.068Z,86.1
2017-02-09T05:20:15.223Z,86.1
2017-02-09T05:23:09.680Z,86.48
2017-02-09T05:24:23.226Z,87.06
2017-02-09T05:25:36.475Z,86.19
2017-02-09T05:26:49.721Z,86.39
2017-02-09T05:28:01.864Z,86.39
2017-02-09T05:29:14.543Z,86.19
2017-02-09T05:30:27.793Z,86.68
2017-02-09T05:31:41.043Z,86.63
2017-02-09T05:32:54.295Z,86.82
2017-02-09T05:34:07.542Z,86.39
2017-02-09T05:35:21.088Z,86.73
2017-02-09T05:36:34.339Z,86.73
2017-02-09T05:37:47.590Z,86.68
2017-02-09T05:39:00.843Z,86.77
2017-02-09T05:40:14.091Z,86.77
2017-02-09T05:41:27.641Z,86.73
2017-02-09T05:42:40.895Z,86.39
2017-02-09T05:43:54.141Z,86.63
2017-02-09T05:45:06.822Z,87.21
2017-02-09T05:46:20.367Z,87.02
2017-02-09T05:47:33.613Z,87.21
2017-02-09T05:49:00.844Z,87.5
2017-02-09T05:50:14.089Z,86.92
2017-02-09T05:51:27.536Z,87.3
2017-02-09T05:52:40.785Z,87.02
2017-02-09T05:53:54.031Z,87.06
2017-02-09T05:55:06.713Z,87.16
2017-02-09T05:56:19.961Z,87.5
2017-02-09T05:57:33.410Z,87.6
2017-02-09T05:58:46.654Z,87.45
2017-02-09T05:59:59.902Z,87.45
2017-02-09T06:01:12.586Z,87.7
2017-02-09T06:02:26.033Z,87.45
2017-02-09T06:03:39.279Z,88.12
2017-02-09T06:04:52.479Z,87.88
2017-02-09T06:06:05.589Z,88.17
2017-02-09T06:07:18.142Z,88.37
2017-02-09T06:08:31.549Z,88.37
2017-02-09T06:09:44.658Z,88.17
2017-02-09T06:10:57.808Z,88.17
2017-02-09T06:12:10.358Z,88.27
2017-02-09T06:13:23.468Z,88.46
2017-02-09T06:14:36.580Z,89.04
2017-02-09T06:15:49.689Z,89.04
2017-02-09T06:17:02.265Z,88.85
2017-02-09T06:18:15.371Z,88.95
2017-02-09T06:19:28.678Z,88.85
2017-02-09T06:20:41.791Z,88.65
2017-02-09T06:21:54.900Z,88.75
2017-02-09T06:24:34.208Z,89.53
2017-02-09T06:25:47.319Z,89.33
2017-02-09T06:27:00.425Z,89.33
2017-02-09T06:28:12.976Z,89.23
2017-02-09T06:29:26.284Z,89.62
2017-02-09T06:30:39.392Z,89.23
2017-02-09T06:31:52.507Z,89.23
2017-02-09T06:33:05.057Z,89.04
2017-02-09T06:34:18.165Z,89.23
2017-02-09T06:35:31.473Z,89.14
2017-02-09T06:36:44.586Z,89.62
2017-02-09T06:37:57.693Z,89.43
2017-02-09T06:39:10.812Z,89.53
2017-02-09T06:40:23.921Z,89.53
2017-02-09T06:41:51.047Z,89.62
2017-02-09T06:43:18.164Z,89.72
2017-02-09T06:44:31.274Z,89.23
2017-02-09T06:45:44.681Z,89.33
2017-02-09T06:46:57.788Z,89.43
2017-02-09T06:48:10.900Z,89.23
2017-02-09T06:49:24.007Z,89.81
2017-02-09T06:50:37.177Z,89.62
2017-02-09T06:52:04.409Z,89.23
2017-02-09T06:53:17.087Z,89.23
2017-02-09T06:58:48.884Z,89.14
2017-02-09T07:00:02.131Z,89.43
2017-02-09T07:01:15.373Z,89.43
2017-02-09T07:02:28.630Z,89.33
2017-02-09T07:03:42.076Z,89.91
2017-02-09T07:04:55.322Z,89.91
2017-02-09T07:06:08.573Z,89.81
2017-02-09T07:07:21.820Z,89.81
2017-02-09T07:08:35.069Z,89.91
2017-02-09T07:09:48.514Z,89.53
2017-02-09T07:11:01.763Z,89.81
2017-02-09T07:12:15.013Z,89.81
2017-02-09T07:13:28.263Z,89.72
2017-02-09T07:14:41.811Z,90
2017-02-09T07:15:55.056Z,89.91
2017-02-09T07:17:08.303Z,90
2017-02-09T07:18:21.547Z,89.91
2017-02-09T07:19:34.795Z,89.62
2017-02-09T07:20:48.340Z,89.81
2017-02-09T07:22:01.592Z,89.81
2017-02-09T07:23:14.269Z,89.81
2017-02-09T07:24:27.517Z,90.39
2017-02-09T07:25:40.764Z,89.91
2017-02-09T07:26:54.010Z,90.58
2017-02-09T07:28:07.255Z,90.58
2017-02-09T07:29:19.936Z,90.1
2017-02-09T07:30:33.183Z,89.53
2017-02-09T07:31:46.634Z,90.39
2017-02-09T07:32:59.309Z,90.48
2017-02-09T07:34:11.422Z,90.58
2017-02-09T07:35:24.671Z,90.48
2017-02-09T07:36:38.217Z,90.39
2017-02-09T07:37:51.465Z,90.48
2017-02-09T07:39:04.716Z,90.88
2017-02-09T07:40:17.393Z,90.48
2017-02-09T07:41:30.637Z,91.06
2017-02-09T07:42:43.884Z,90.58
2017-02-09T07:43:57.132Z,91.16
2017-02-09T07:45:10.379Z,90.78
2017-02-09T07:46:23.626Z,91.36
2017-02-09T07:47:37.173Z,91.06
2017-02-09T07:48:50.420Z,91.06
2017-02-09T07:50:03.669Z,91.16
2017-02-09T07:51:16.352Z,91.26
2017-02-09T07:52:29.042Z,91.26
2017-02-09T07:53:42.590Z,91.45
2017-02-09T07:54:55.841Z,91.83
2017-02-09T07:56:09.092Z,91.83
2017-02-09T07:57:22.370Z,91.26
2017-02-09T07:58:49.899Z,91.36
2017-02-09T08:00:17.128Z,91.83
2017-02-09T08:01:30.374Z,91.93
2017-02-09T08:02:43.053Z,91.36
2017-02-09T08:03:56.599Z,91.83
2017-02-09T08:05:09.845Z,91.16
2017-02-09T08:06:23.095Z,91.26
2017-02-09T08:07:35.779Z,91.55
2017-02-09T08:08:49.224Z,91.83
2017-02-09T08:10:02.473Z,91.74
2017-02-09T08:11:15.720Z,91.83
2017-02-09T08:12:28.968Z,91.45
2017-02-09T08:13:41.647Z,91.64
2017-02-09T08:14:55.095Z,91.55
2017-02-09T08:16:07.205Z,91.45
2017-02-09T08:17:19.885Z,91.36
2017-02-09T08:18:33.133Z,91.16
2017-02-09T08:19:46.012Z,91.16
2017-02-09T08:20:59.261Z,91.02
2017-02-09T08:22:11.371Z,91.26
2017-02-09T08:23:24.618Z,91.16
2017-02-09T08:24:37.867Z,91.45
2017-02-09T08:25:50.547Z,91.31
2017-02-09T08:27:17.775Z,91.36
2017-02-09T08:28:31.018Z,92.08
2017-02-09T08:29:44.302Z,91.99
2017-02-09T08:31:11.571Z,91.12
2017-02-09T08:32:24.816Z,91.02
2017-02-09T08:33:38.061Z,91.6
2017-02-09T08:34:51.307Z,91.02
2017-02-09T08:36:04.556Z,91.41
2017-02-09T08:37:17.836Z,91.89
2017-02-09T08:38:31.085Z,91.5
2017-02-09T08:39:44.361Z,91.6
2017-02-09T08:40:57.805Z,91.12
2017-02-09T08:42:11.058Z,91.21
2017-02-09T08:43:24.310Z,91.6
2017-02-09T08:44:37.558Z,91.41
2017-02-09T08:45:50.439Z,91.31
2017-02-09T08:47:03.688Z,91.02
2017-02-09T08:48:16.935Z,90.64
2017-02-09T08:49:30.179Z,90.54
2017-02-09T08:50:43.428Z,91.02
2017-02-09T08:51:55.736Z,91.12
2017-02-09T08:53:08.414Z,91.02
2017-02-09T08:54:21.660Z,91.12
2017-02-09T08:55:34.339Z,91.12
2017-02-09T08:56:47.883Z,91.21
2017-02-09T08:58:01.132Z,91.5
2017-02-09T08:59:13.245Z,90.64
2017-02-09T09:00:25.929Z,90.44
2017-02-09T09:01:38.607Z,90.64
2017-02-09T09:02:52.157Z,90.73
2017-02-09T09:04:05.417Z,91.12
2017-02-09T09:05:18.093Z,90.58
2017-02-09T09:06:31.340Z,90.73
2017-02-09T09:07:44.889Z,91.45
2017-02-09T09:08:58.135Z,90.44
2017-02-09T09:10:11.384Z,90.64
2017-02-09T09:11:24.624Z,90.83
2017-02-09T09:12:37.875Z,91.12
2017-02-09T09:13:50.557Z,91.5
2017-02-09T09:15:03.808Z,91.36
2017-02-09T09:16:15.918Z,91.41
2017-02-09T09:17:29.170Z,91.12
2017-02-09T09:18:41.279Z,91.41
2017-02-09T09:19:53.961Z,91.45
2017-02-09T09:21:07.209Z,91.6
2017-02-09T09:22:20.462Z,91.99
2017-02-09T09:23:33.714Z,91.79
2017-02-09T09:24:46.596Z,92.08
2017-02-09T09:25:59.841Z,92.13
2017-02-09T09:27:13.084Z,91.83
2017-02-09T09:28:25.764Z,92.56
2017-02-09T09:29:52.993Z,92.85
2017-02-09T09:31:06.270Z,92.18
2017-02-09T09:32:19.512Z,92.76
2017-02-09T09:33:32.766Z,92.47
2017-02-09T09:34:44.879Z,92.51
2017-02-09T09:35:58.125Z,92.18
2017-02-09T09:37:10.804Z,92.47
2017-02-09T09:38:24.049Z,92.41
2017-02-09T09:39:51.479Z,92.41
2017-02-09T09:41:04.727Z,91.74
2017-02-09T09:42:16.848Z,91.83
2017-02-09T09:43:30.097Z,91.16
2017-02-09T09:44:43.345Z,90.1
2017-02-09T09:45:56.894Z,90.58
2017-02-09T09:47:10.155Z,90.68
2017-02-09T09:48:22.870Z,90.1
2017-02-09T09:49:35.551Z,90
2017-02-09T09:50:49.101Z,89.91
2017-02-09T09:52:02.350Z,90.2
2017-02-09T09:53:15.598Z,89.53
2017-02-09T09:54:28.277Z,89.14
2017-02-09T09:55:41.523Z,88.95
2017-02-09T09:56:55.069Z,88.85
2017-02-09T09:58:08.322Z,89.04
2017-02-09T09:59:21.572Z,87.98
2017-02-09T10:00:34.818Z,87.5
2017-02-09T10:01:47.694Z,87.3
2017-02-09T10:03:14.926Z,86.82
2017-02-09T10:04:27.607Z,86.82
2017-02-09T10:05:40.859Z,85.96
2017-02-09T10:06:53.540Z,85.86
2017-02-09T10:08:20.769Z,85.47
2017-02-09T10:09:34.014Z,85.23
2017-02-09T10:10:47.261Z,84.94
2017-02-09T10:12:00.728Z,84.75
2017-02-09T10:13:13.975Z,83.2
2017-02-09T10:14:26.656Z,82.82
2017-02-09T10:15:39.337Z,81.57
2017-02-09T10:16:52.586Z,81.37
2017-02-09T10:18:20.015Z,80.89
2017-02-09T10:19:33.265Z,80.89
2017-02-09T10:20:45.944Z,80.99
2017-02-09T10:21:59.198Z,81.18
2017-02-09T10:23:12.453Z,81.18
2017-02-09T10:24:25.704Z,81.57
2017-02-09T10:25:38.463Z,80.45
2017-02-09T10:26:51.707Z,79.83
2017-02-09T10:28:04.588Z,80.16
2017-02-09T10:29:15.556Z,80.83
2017-02-09T10:30:28.236Z,80.16
2017-02-09T10:31:41.479Z,79.1
2017-02-09T10:32:54.726Z,79.1
2017-02-09T10:34:07.412Z,79.87
2017-02-09T10:35:20.617Z,79.58
2017-02-09T10:36:33.725Z,78.81
2017-02-09T10:37:46.276Z,78.52
2017-02-09T10:39:13.592Z,77.46
2017-02-09T10:40:26.703Z,77.65
2017-02-09T10:41:39.815Z,77.26
2017-02-09T10:42:52.922Z,77.36
2017-02-09T10:44:06.034Z,76.43
2017-02-09T10:45:19.143Z,76.59
2017-02-09T10:46:32.251Z,76.43
2017-02-09T10:47:45.363Z,76.43
2017-02-09T10:48:58.469Z,75.95
2017-02-09T10:50:11.777Z,74.79
2017-02-09T10:51:24.326Z,75.95
2017-02-09T10:52:37.436Z,76.05
2017-02-09T10:53:49.986Z,75.76
2017-02-09T10:55:02.830Z,74.99
2017-02-09T10:56:15.382Z,74.99
2017-02-09T10:57:28.496Z,74.6
2017-02-09T10:58:41.604Z,74.89
2017-02-09T10:59:54.160Z,74.79
2017-02-09T11:01:06.911Z,74.6
2017-02-09T11:02:19.461Z,73.06
2017-02-09T11:03:32.015Z,73.25
2017-02-09T11:04:45.135Z,73.25
2017-02-09T11:05:58.545Z,72.9
2017-02-09T11:07:11.669Z,72.52
2017-02-09T11:08:24.247Z,72.52
2017-02-09T11:09:37.380Z,72.42
2017-02-09T11:11:04.819Z,72.71
2017-02-09T11:12:16.875Z,72.71
2017-02-09T11:13:30.065Z,72.61
2017-02-09T11:14:42.833Z,71.74
2017-02-09T11:15:56.124Z,72.03
2017-02-09T11:17:09.574Z,71.74
2017-02-09T11:18:22.772Z,72.71
2017-02-09T11:19:36.061Z,72.42
2017-02-09T11:20:49.242Z,71.84
2017-02-09T11:22:02.480Z,71.45
2017-02-09T11:23:29.767Z,71.39
2017-02-09T11:24:43.105Z,70.81
2017-02-09T11:25:56.510Z,70.81
2017-02-09T11:27:22.689Z,70.32
2017-02-09T11:28:36.026Z,70.62
2017-02-09T11:29:49.395Z,70.81
2017-02-09T11:31:02.723Z,70.9
2017-02-09T11:32:29.285Z,70.72
2017-02-09T11:33:56.404Z,71.2
2017-02-09T11:35:08.952Z,71.1
2017-02-09T11:36:21.503Z,69.94
2017-02-09T11:37:34.814Z,70.32
2017-02-09T11:38:47.928Z,70.07
2017-02-09T11:40:01.047Z,69.4
2017-02-09T11:41:14.159Z,69.68
2017-02-09T11:42:27.277Z,69.78
2017-02-09T11:43:40.391Z,70.07
2017-02-09T11:44:53.499Z,70.07
2017-02-09T11:46:06.617Z,70.17
2017-02-09T11:47:19.167Z,70.36
2017-02-09T11:48:32.273Z,70.17
2017-02-09T11:49:45.383Z,70.17
2017-02-09T11:50:57.376Z,70.17
2017-02-09T11:52:10.488Z,69.59
2017-02-09T11:53:23.036Z,69.88
2017-02-09T11:54:36.154Z,69.2
2017-02-09T11:55:49.265Z,69.01
2017-02-09T11:57:02.375Z,69.4
2017-02-09T11:58:14.365Z,68.62
2017-02-09T11:59:26.919Z,67.94
2017-02-09T12:00:40.033Z,67.17
2017-02-09T12:01:53.146Z,68.14
2017-02-09T12:03:20.275Z,67.85
2017-02-09T12:04:33.992Z,67.94
2017-02-09T12:05:47.240Z,67.79
2017-02-09T12:07:00.488Z,66.14
2017-02-09T12:08:13.178Z,65.47
2017-02-09T12:09:25.860Z,65.47
2017-02-09T12:10:39.111Z,66.14
2017-02-09T12:11:52.365Z,65.75
2017-02-09T12:13:05.620Z,65.47
2017-02-09T12:14:18.872Z,66.53
2017-02-09T12:15:46.116Z,66.72
2017-02-09T12:16:59.383Z,65.95
2017-02-09T12:18:12.626Z,65.37
2017-02-09T12:19:25.306Z,65.4
2017-02-09T12:20:52.536Z,65.59
2017-02-09T12:22:05.783Z,65.79
2017-02-09T12:23:18.473Z,65.98
2017-02-09T12:24:31.723Z,66.37
2017-02-09T12:25:44.975Z,65.88
2017-02-09T12:26:58.224Z,65.11
2017-02-09T12:28:11.477Z,65.43
2017-02-09T12:29:24.187Z,64.85
2017-02-09T12:30:37.434Z,65.92
2017-02-09T12:31:50.115Z,65.66
2017-02-09T12:33:03.364Z,63.43
2017-02-09T12:34:16.615Z,63.82
2017-02-09T12:35:29.864Z,62.85
2017-02-09T12:36:43.318Z,63.04
2017-02-09T12:37:56.568Z,62.49
2017-02-09T12:39:08.686Z,62.01
2017-02-09T12:40:21.369Z,61.26
2017-02-09T12:41:34.624Z,60.39
2017-02-09T12:42:48.075Z,59.55
2017-02-09T12:44:01.327Z,59.38
2017-02-09T12:45:13.441Z,58.61
2017-02-09T12:46:26.691Z,59.28
2017-02-09T12:47:40.141Z,58.64
2017-02-09T12:49:06.810Z,57.67
2017-02-09T12:50:20.067Z,57.6
2017-02-09T12:51:33.323Z,56.65
2017-02-09T12:52:46.775Z,55.68
2017-02-09T12:54:00.029Z,54.54
2017-02-09T12:55:12.711Z,55.05
2017-02-09T12:56:25.964Z,55.15
2017-02-09T12:57:39.221Z,55.15
2017-02-09T12:58:52.775Z,53.11
2017-02-09T13:00:05.467Z,53.72
2017-02-09T13:01:32.136Z,52.23
2017-02-09T13:02:45.389Z,52.45
2017-02-09T13:03:57.507Z,51.8
2017-02-09T13:05:10.784Z,51.31
2017-02-09T13:06:23.496Z,51.19
2017-02-09T13:07:36.867Z,51.61
2017-02-09T13:08:50.195Z,51.31
2017-02-09T13:10:03.575Z,50.43
2017-02-09T13:11:15.740Z,49.49
2017-02-09T13:12:29.038Z,49.8
2017-02-09T13:13:42.365Z,49.99
2017-02-09T13:14:55.632Z,49.71
2017-02-09T13:16:08.943Z,48.54
2017-02-09T13:17:21.655Z,49.22
2017-02-09T13:18:34.911Z,49.12
2017-02-09T13:19:47.598Z,48.34
2017-02-09T13:21:00.849Z,48.46
2017-02-09T13:22:14.103Z,48.85
2017-02-09T13:23:27.354Z,48.46
2017-02-09T13:24:40.042Z,49.24
2017-02-09T13:26:07.279Z,48.46
2017-02-09T13:27:20.530Z,49.61
2017-02-09T13:28:33.792Z,49.51
2017-02-09T13:29:47.051Z,49.88
2017-02-09T13:31:00.304Z,50.36
2017-02-09T13:32:13.562Z,51.41
2017-02-09T13:33:26.249Z,50.16
2017-02-09T13:34:39.504Z,50.46
2017-02-09T13:36:06.742Z,49.99
2017-02-09T13:37:19.429Z,49.44
2017-02-09T13:38:32.684Z,48.46
2017-02-09T13:39:45.942Z,48.85
2017-02-09T13:40:58.830Z,47.61
2017-02-09T13:42:12.084Z,48.27
2017-02-09T13:43:24.769Z,48.29
2017-02-09T13:44:38.021Z,47.41
2017-02-09T13:46:04.889Z,47.34
2017-02-09T13:47:18.145Z,49.46
2017-02-09T13:48:31.399Z,49.61
2017-02-09T13:49:44.652Z,50.29
2017-02-09T13:50:57.338Z,50.48
2017-02-09T13:52:10.020Z,50.48
2017-02-09T13:53:23.284Z,50.19
2017-02-09T13:54:35.967Z,49.32
2017-02-09T13:55:49.230Z,49.8
2017-02-09T13:57:02.787Z,49.9
2017-02-09T13:58:14.908Z,49.99
2017-02-09T14:00:53.703Z,49.9
2017-02-09T14:02:07.159Z,49.22
2017-02-09T14:03:19.279Z,50.46
2017-02-09T14:04:32.533Z,49.71
2017-02-09T14:05:59.771Z,50.29
2017-02-09T14:07:13.026Z,50.48
2017-02-09T14:08:25.710Z,49.61
2017-02-09T14:09:52.948Z,49.54
2017-02-09T14:11:06.203Z,49.27
2017-02-09T14:12:19.457Z,48.29
2017-02-09T14:13:32.712Z,48.41
2017-02-09T14:14:46.003Z,47.24
2017-02-09T14:15:59.270Z,46.48
2017-02-09T14:17:12.552Z,46.19
2017-02-09T14:18:26.626Z,46.09
2017-02-09T14:19:39.838Z,46.01
2017-02-09T14:21:06.412Z,47.28
2017-02-09T14:22:19.542Z,47.56
2017-02-09T14:23:32.865Z,47.56
2017-02-09T14:24:45.989Z,49.32
2017-02-09T14:25:59.111Z,49.68
2017-02-09T14:27:12.232Z,48.97
2017-02-09T14:28:25.559Z,48.71
2017-02-09T14:29:38.682Z,48.49
2017-02-09T14:30:51.806Z,49.05
2017-02-09T14:32:04.377Z,49.54
2017-02-09T14:33:16.393Z,50.19
2017-02-09T14:34:29.532Z,49.71
2017-02-09T14:35:42.684Z,50.68
2017-02-09T14:36:55.826Z,51.46
2017-02-09T14:38:08.954Z,51.92
2017-02-09T14:39:22.370Z,52.28
2017-02-09T14:40:49.497Z,52.58
2017-02-09T14:42:02.052Z,52.77
2017-02-09T14:43:14.048Z,52.28
2017-02-09T14:44:27.163Z,52.58
2017-02-09T14:45:40.279Z,52.77
2017-02-09T14:46:53.421Z,54.3
2017-02-09T14:48:06.549Z,54.86
2017-02-09T14:49:19.660Z,54.96
2017-02-09T14:50:33.092Z,55.61
2017-02-09T14:51:46.211Z,56.26
2017-02-09T14:52:59.328Z,55.71
2017-02-09T14:56:07.592Z,55.15
2017-02-09T14:57:20.145Z,55.05
2017-02-09T14:58:33.257Z,54.99
2017-02-09T14:59:46.373Z,53.62
2017-02-09T15:01:12.938Z,54.11
2017-02-09T15:02:26.092Z,54.6
2017-02-09T15:03:39.208Z,53.81
2017-02-09T15:04:52.675Z,54.01
2017-02-09T15:06:05.932Z,55.05
2017-02-09T15:07:19.187Z,55.61
2017-02-09T15:08:32.441Z,55.64
2017-02-09T15:09:45.702Z,54.21
2017-02-09T15:10:59.257Z,53.23
2017-02-09T15:12:12.508Z,54.52
2017-02-09T15:13:25.194Z,53.72
2017-02-09T15:14:38.450Z,53.36
2017-02-09T15:15:52.105Z,53.16
2017-02-09T15:17:05.369Z,53.33
2017-02-09T15:18:18.056Z,55.35
2017-02-09T15:19:31.311Z,56.59
2017-02-09T15:20:44.569Z,56.49
2017-02-09T15:21:58.027Z,56.49
2017-02-09T15:23:11.275Z,55.61
2017-02-09T15:24:24.528Z,55.35
2017-02-09T15:25:37.210Z,55.35
2017-02-09T15:26:50.761Z,55.54
2017-02-09T15:28:04.014Z,55.76
2017-02-09T15:29:16.127Z,55.27
2017-02-09T15:30:29.384Z,55.54
2017-02-09T15:31:42.638Z,56.71
2017-02-09T15:32:55.325Z,56.32
2017-02-09T15:34:08.010Z,57.07
2017-02-09T15:35:35.247Z,56.49
2017-02-09T15:38:15.347Z,57.92
2017-02-09T15:39:28.598Z,58.37
2017-02-09T15:40:41.858Z,58.4
2017-02-09T15:41:55.115Z,58.11
2017-02-09T15:43:08.371Z,58.57
2017-02-09T15:44:21.623Z,58.28
2017-02-09T15:45:34.877Z,58.47
2017-02-09T15:46:48.133Z,59.61
2017-02-09T15:48:01.391Z,59.61
2017-02-09T15:49:14.029Z,58.76
2017-02-09T15:50:27.143Z,59.92
2017-02-09T15:51:40.260Z,59.54
2017-02-09T15:52:53.372Z,59.44
2017-02-09T15:54:06.489Z,59.64
2017-02-09T15:55:19.044Z,60.22
2017-02-09T15:56:31.041Z,59.8
2017-02-09T15:57:44.158Z,59.64
2017-02-09T15:58:57.269Z,59.05
2017-02-09T16:00:10.385Z,58.34
2017-02-09T16:01:37.512Z,59.51
2017-02-09T16:02:50.624Z,59.8
2017-02-09T16:04:03.738Z,58.93
2017-02-09T16:05:16.853Z,58.67
2017-02-09T16:06:29.973Z,59.12
2017-02-09T16:07:42.531Z,59.61
2017-02-09T16:08:55.856Z,60.12
2017-02-09T16:10:08.994Z,60.22
2017-02-09T16:11:36.362Z,59.7
2017-02-09T16:12:49.487Z,60.58
2017-02-09T16:14:02.600Z,60.97
2017-02-09T16:15:14.039Z,61.71
2017-02-09T16:16:27.149Z,61.16
2017-02-09T16:17:40.263Z,60.68